sensor_id;sensor_type;location;lat;lon;timestamp;P1;durP1;ratioP1;P2;durP2;ratioP2
64633;SDS011;51043;52.406;9.690;2023-06-14T00:00:04;2.53;;;2.10;;
64633;SDS011;51043;52.406;9.690;2023-06-14T00:02:35;5.53;;;2.63;;
64633;SDS011;51043;52.406;9.690;2023-06-14T00:05:04;6.63;;;2.13;;
64633;SDS011;51043;52.406;9.690;2023-06-14T00:07:36;4.35;;;2.50;;
64633;SDS011;51043;52.406;9.690;2023-06-14T00:10:08;8.20;;;2.58;;
64633;SDS011;51043;52.406;9.690;2023-06-14T00:12:38;11.57;;;2.40;;
64633;SDS011;51043;52.406;9.690;2023-06-14T00:15:06;5.20;;;2.20;;
64633;SDS011;51043;52.406;9.690;2023-06-14T00:17:37;8.23;;;2.60;;
64633;SDS011;51043;52.406;9.690;2023-06-14T00:20:07;8.13;;;2.67;;
64633;SDS011;51043;52.406;9.690;2023-06-14T00:22:37;6.30;;;2.33;;
64633;SDS011;51043;52.406;9.690;2023-06-14T00:25:06;8.00;;;2.90;;
64633;SDS011;51043;52.406;9.690;2023-06-14T00:27:40;9.68;;;2.30;;
64633;SDS011;51043;52.406;9.690;2023-06-14T00:30:10;8.18;;;2.85;;
64633;SDS011;51043;52.406;9.690;2023-06-14T00:32:40;9.82;;;2.70;;
64633;SDS011;51043;52.406;9.690;2023-06-14T00:35:09;6.10;;;2.65;;
64633;SDS011;51043;52.406;9.690;2023-06-14T00:37:37;3.47;;;2.38;;
64633;SDS011;51043;52.406;9.690;2023-06-14T00:40:06;6.78;;;2.40;;
64633;SDS011;51043;52.406;9.690;2023-06-14T00:42:36;8.27;;;2.88;;
64633;SDS011;51043;52.406;9.690;2023-06-14T00:45:05;4.57;;;2.33;;
64633;SDS011;51043;52.406;9.690;2023-06-14T00:47:36;6.18;;;2.55;;
64633;SDS011;51043;52.406;9.690;2023-06-14T00:50:07;6.40;;;2.60;;
64633;SDS011;51043;52.406;9.690;2023-06-14T00:52:37;3.50;;;2.30;;
64633;SDS011;51043;52.406;9.690;2023-06-14T00:55:06;7.78;;;2.35;;
64633;SDS011;51043;52.406;9.690;2023-06-14T00:57:35;5.40;;;2.42;;
64633;SDS011;51043;52.406;9.690;2023-06-14T01:00:07;5.30;;;2.28;;
64633;SDS011;51043;52.406;9.690;2023-06-14T01:02:36;3.40;;;2.47;;
64633;SDS011;51043;52.406;9.690;2023-06-14T01:05:04;4.60;;;2.72;;
64633;SDS011;51043;52.406;9.690;2023-06-14T01:07:43;5.97;;;2.10;;
64633;SDS011;51043;52.406;9.690;2023-06-14T01:10:31;4.07;;;2.17;;
64633;SDS011;51043;52.406;9.690;2023-06-14T01:13:05;5.22;;;2.25;;
64633;SDS011;51043;52.406;9.690;2023-06-14T01:15:38;5.55;;;2.28;;
64633;SDS011;51043;52.406;9.690;2023-06-14T01:18:11;4.05;;;2.58;;
64633;SDS011;51043;52.406;9.690;2023-06-14T01:20:45;6.00;;;2.30;;
64633;SDS011;51043;52.406;9.690;2023-06-14T01:23:18;8.90;;;2.55;;
64633;SDS011;51043;52.406;9.690;2023-06-14T01:25:47;5.78;;;2.40;;
64633;SDS011;51043;52.406;9.690;2023-06-14T01:28:19;7.10;;;2.60;;
64633;SDS011;51043;52.406;9.690;2023-06-14T01:30:48;5.13;;;2.40;;
64633;SDS011;51043;52.406;9.690;2023-06-14T01:33:20;6.70;;;2.00;;
64633;SDS011;51043;52.406;9.690;2023-06-14T01:35:51;4.97;;;2.40;;
64633;SDS011;51043;52.406;9.690;2023-06-14T01:38:23;4.60;;;2.55;;
64633;SDS011;51043;52.406;9.690;2023-06-14T01:40:53;6.93;;;2.40;;
64633;SDS011;51043;52.406;9.690;2023-06-14T01:43:24;8.88;;;3.13;;
64633;SDS011;51043;52.406;9.690;2023-06-14T01:45:53;5.13;;;2.28;;
64633;SDS011;51043;52.406;9.690;2023-06-14T01:48:22;3.50;;;2.42;;
64633;SDS011;51043;52.406;9.690;2023-06-14T01:50:54;8.88;;;2.50;;
64633;SDS011;51043;52.406;9.690;2023-06-14T01:53:23;9.18;;;2.72;;
64633;SDS011;51043;52.406;9.690;2023-06-14T01:55:54;6.22;;;2.40;;
64633;SDS011;51043;52.406;9.690;2023-06-14T01:58:23;7.57;;;2.50;;
64633;SDS011;51043;52.406;9.690;2023-06-14T02:00:52;4.55;;;2.50;;
64633;SDS011;51043;52.406;9.690;2023-06-14T02:03:21;6.35;;;2.35;;
64633;SDS011;51043;52.406;9.690;2023-06-14T02:05:54;5.15;;;2.53;;
64633;SDS011;51043;52.406;9.690;2023-06-14T02:08:24;5.65;;;2.35;;
64633;SDS011;51043;52.406;9.690;2023-06-14T02:10:52;4.25;;;2.30;;
64633;SDS011;51043;52.406;9.690;2023-06-14T02:13:20;4.00;;;2.50;;
64633;SDS011;51043;52.406;9.690;2023-06-14T02:15:55;6.22;;;2.30;;
64633;SDS011;51043;52.406;9.690;2023-06-14T02:18:23;9.95;;;2.53;;
64633;SDS011;51043;52.406;9.690;2023-06-14T02:20:55;5.93;;;2.85;;
64633;SDS011;51043;52.406;9.690;2023-06-14T02:23:26;3.70;;;2.33;;
64633;SDS011;51043;52.406;9.690;2023-06-14T02:25:58;3.42;;;2.20;;
64633;SDS011;51043;52.406;9.690;2023-06-14T02:28:26;2.63;;;2.22;;
64633;SDS011;51043;52.406;9.690;2023-06-14T02:30:54;4.43;;;2.10;;
64633;SDS011;51043;52.406;9.690;2023-06-14T02:33:22;2.50;;;2.25;;
64633;SDS011;51043;52.406;9.690;2023-06-14T02:35:51;6.15;;;2.55;;
64633;SDS011;51043;52.406;9.690;2023-06-14T02:38:19;6.95;;;2.30;;
64633;SDS011;51043;52.406;9.690;2023-06-14T02:40:49;3.67;;;2.08;;
64633;SDS011;51043;52.406;9.690;2023-06-14T02:43:20;6.72;;;2.30;;
64633;SDS011;51043;52.406;9.690;2023-06-14T02:45:48;8.55;;;2.60;;
64633;SDS011;51043;52.406;9.690;2023-06-14T02:48:24;5.00;;;2.53;;
64633;SDS011;51043;52.406;9.690;2023-06-14T02:50:55;4.22;;;2.22;;
64633;SDS011;51043;52.406;9.690;2023-06-14T02:53:23;3.93;;;2.40;;
64633;SDS011;51043;52.406;9.690;2023-06-14T02:55:54;5.43;;;2.13;;
64633;SDS011;51043;52.406;9.690;2023-06-14T02:58:23;3.53;;;2.20;;
64633;SDS011;51043;52.406;9.690;2023-06-14T03:00:52;5.05;;;2.25;;
64633;SDS011;51043;52.406;9.690;2023-06-14T03:03:23;5.15;;;2.45;;
64633;SDS011;51043;52.406;9.690;2023-06-14T03:05:54;4.30;;;2.40;;
64633;SDS011;51043;52.406;9.690;2023-06-14T03:08:26;5.93;;;2.33;;
64633;SDS011;51043;52.406;9.690;2023-06-14T03:10:59;4.37;;;2.57;;
64633;SDS011;51043;52.406;9.690;2023-06-14T03:13:28;3.33;;;2.43;;
64633;SDS011;51043;52.406;9.690;2023-06-14T03:15:59;6.70;;;2.42;;
64633;SDS011;51043;52.406;9.690;2023-06-14T03:18:32;18.23;;;2.70;;
64633;SDS011;51043;52.406;9.690;2023-06-14T03:21:04;5.40;;;2.53;;
64633;SDS011;51043;52.406;9.690;2023-06-14T03:23:37;2.90;;;2.50;;
64633;SDS011;51043;52.406;9.690;2023-06-14T03:26:06;4.37;;;2.40;;
64633;SDS011;51043;52.406;9.690;2023-06-14T03:28:35;4.82;;;2.38;;
64633;SDS011;51043;52.406;9.690;2023-06-14T03:31:03;5.60;;;2.40;;
64633;SDS011;51043;52.406;9.690;2023-06-14T03:33:31;4.10;;;2.30;;
64633;SDS011;51043;52.406;9.690;2023-06-14T03:35:59;2.97;;;2.28;;
64633;SDS011;51043;52.406;9.690;2023-06-14T03:38:28;4.30;;;2.80;;
64633;SDS011;51043;52.406;9.690;2023-06-14T03:40:57;7.25;;;2.40;;
64633;SDS011;51043;52.406;9.690;2023-06-14T03:43:26;2.67;;;2.45;;
64633;SDS011;51043;52.406;9.690;2023-06-14T03:45:56;6.75;;;2.55;;
64633;SDS011;51043;52.406;9.690;2023-06-14T03:48:25;7.28;;;3.00;;
64633;SDS011;51043;52.406;9.690;2023-06-14T03:50:53;3.67;;;2.53;;
64633;SDS011;51043;52.406;9.690;2023-06-14T03:53:26;4.55;;;2.53;;
64633;SDS011;51043;52.406;9.690;2023-06-14T03:55:55;2.65;;;2.25;;
64633;SDS011;51043;52.406;9.690;2023-06-14T03:58:33;3.28;;;2.63;;
64633;SDS011;51043;52.406;9.690;2023-06-14T04:01:01;5.13;;;2.42;;
64633;SDS011;51043;52.406;9.690;2023-06-14T04:03:30;7.00;;;2.72;;
64633;SDS011;51043;52.406;9.690;2023-06-14T04:06:00;4.50;;;2.60;;
64633;SDS011;51043;52.406;9.690;2023-06-14T04:08:28;3.97;;;2.40;;
64633;SDS011;51043;52.406;9.690;2023-06-14T04:11:00;7.35;;;2.47;;
64633;SDS011;51043;52.406;9.690;2023-06-14T04:13:29;7.10;;;2.65;;
64633;SDS011;51043;52.406;9.690;2023-06-14T04:16:01;4.03;;;2.40;;
64633;SDS011;51043;52.406;9.690;2023-06-14T04:18:33;7.63;;;2.53;;
64633;SDS011;51043;52.406;9.690;2023-06-14T04:21:01;5.53;;;2.60;;
64633;SDS011;51043;52.406;9.690;2023-06-14T04:23:29;6.70;;;2.50;;
64633;SDS011;51043;52.406;9.690;2023-06-14T04:26:00;7.40;;;2.55;;
64633;SDS011;51043;52.406;9.690;2023-06-14T04:28:29;7.03;;;2.40;;
64633;SDS011;51043;52.406;9.690;2023-06-14T04:31:01;10.65;;;2.85;;
64633;SDS011;51043;52.406;9.690;2023-06-14T04:33:31;4.50;;;2.40;;
64633;SDS011;51043;52.406;9.690;2023-06-14T04:36:03;4.03;;;2.22;;
64633;SDS011;51043;52.406;9.690;2023-06-14T04:38:31;4.80;;;2.38;;
64633;SDS011;51043;52.406;9.690;2023-06-14T04:41:01;5.78;;;2.17;;
64633;SDS011;51043;52.406;9.690;2023-06-14T04:43:29;7.40;;;2.50;;
64633;SDS011;51043;52.406;9.690;2023-06-14T04:45:58;5.75;;;2.17;;
64633;SDS011;51043;52.406;9.690;2023-06-14T04:48:30;4.05;;;2.30;;
64633;SDS011;51043;52.406;9.690;2023-06-14T04:50:58;5.22;;;2.40;;
64633;SDS011;51043;52.406;9.690;2023-06-14T04:53:26;8.07;;;2.38;;
64633;SDS011;51043;52.406;9.690;2023-06-14T04:55:56;5.60;;;2.10;;
64633;SDS011;51043;52.406;9.690;2023-06-14T04:58:25;6.43;;;2.55;;
64633;SDS011;51043;52.406;9.690;2023-06-14T05:00:53;7.70;;;2.20;;
64633;SDS011;51043;52.406;9.690;2023-06-14T05:03:28;2.92;;;2.40;;
64633;SDS011;51043;52.406;9.690;2023-06-14T05:05:58;3.13;;;2.05;;
64633;SDS011;51043;52.406;9.690;2023-06-14T05:08:27;3.63;;;2.20;;
64633;SDS011;51043;52.406;9.690;2023-06-14T05:10:56;4.15;;;2.15;;
64633;SDS011;51043;52.406;9.690;2023-06-14T05:13:33;6.75;;;2.28;;
64633;SDS011;51043;52.406;9.690;2023-06-14T05:16:01;7.03;;;2.08;;
64633;SDS011;51043;52.406;9.690;2023-06-14T05:18:32;8.02;;;1.95;;
64633;SDS011;51043;52.406;9.690;2023-06-14T05:21:05;2.58;;;1.90;;
64633;SDS011;51043;52.406;9.690;2023-06-14T05:23:33;4.90;;;2.25;;
64633;SDS011;51043;52.406;9.690;2023-06-14T05:26:01;8.13;;;2.00;;
64633;SDS011;51043;52.406;9.690;2023-06-14T05:28:32;4.20;;;2.05;;
64633;SDS011;51043;52.406;9.690;2023-06-14T05:31:00;3.78;;;2.05;;
64633;SDS011;51043;52.406;9.690;2023-06-14T05:33:30;5.68;;;1.90;;
64633;SDS011;51043;52.406;9.690;2023-06-14T05:35:58;2.92;;;1.90;;
64633;SDS011;51043;52.406;9.690;2023-06-14T05:38:27;6.82;;;1.95;;
64633;SDS011;51043;52.406;9.690;2023-06-14T05:45:00;5.28;;;2.00;;
64633;SDS011;51043;52.406;9.690;2023-06-14T05:47:28;4.43;;;1.67;;
64633;SDS011;51043;52.406;9.690;2023-06-14T05:49:56;5.72;;;1.90;;
64633;SDS011;51043;52.406;9.690;2023-06-14T05:52:24;9.05;;;1.98;;
64633;SDS011;51043;52.406;9.690;2023-06-14T05:54:54;4.75;;;1.92;;
64633;SDS011;51043;52.406;9.690;2023-06-14T05:57:22;5.78;;;1.95;;
64633;SDS011;51043;52.406;9.690;2023-06-14T05:59:50;3.38;;;1.80;;
64633;SDS011;51043;52.406;9.690;2023-06-14T06:02:19;3.47;;;1.88;;
64633;SDS011;51043;52.406;9.690;2023-06-14T06:04:47;2.10;;;1.73;;
64633;SDS011;51043;52.406;9.690;2023-06-14T06:07:15;3.10;;;1.95;;
64633;SDS011;51043;52.406;9.690;2023-06-14T06:09:47;8.38;;;1.73;;
64633;SDS011;51043;52.406;9.690;2023-06-14T06:12:19;3.05;;;1.95;;
64633;SDS011;51043;52.406;9.690;2023-06-14T06:14:47;2.97;;;1.70;;
64633;SDS011;51043;52.406;9.690;2023-06-14T06:17:15;6.13;;;1.77;;
64633;SDS011;51043;52.406;9.690;2023-06-14T06:19:43;3.63;;;1.83;;
64633;SDS011;51043;52.406;9.690;2023-06-14T06:22:12;4.10;;;1.85;;
64633;SDS011;51043;52.406;9.690;2023-06-14T06:24:41;5.03;;;2.00;;
64633;SDS011;51043;52.406;9.690;2023-06-14T06:27:09;4.85;;;1.95;;
64633;SDS011;51043;52.406;9.690;2023-06-14T06:29:41;3.35;;;1.92;;
64633;SDS011;51043;52.406;9.690;2023-06-14T06:32:10;3.60;;;1.98;;
64633;SDS011;51043;52.406;9.690;2023-06-14T06:34:38;13.05;;;3.45;;
64633;SDS011;51043;52.406;9.690;2023-06-14T06:37:06;4.68;;;1.80;;
64633;SDS011;51043;52.406;9.690;2023-06-14T06:39:34;1.95;;;1.70;;
64633;SDS011;51043;52.406;9.690;2023-06-14T06:42:03;5.68;;;1.80;;
64633;SDS011;51043;52.406;9.690;2023-06-14T06:44:35;4.43;;;1.98;;
64633;SDS011;51043;52.406;9.690;2023-06-14T06:47:05;4.00;;;1.80;;
64633;SDS011;51043;52.406;9.690;2023-06-14T06:49:34;4.43;;;1.80;;
64633;SDS011;51043;52.406;9.690;2023-06-14T06:52:03;3.83;;;1.90;;
64633;SDS011;51043;52.406;9.690;2023-06-14T06:54:33;4.47;;;1.80;;
64633;SDS011;51043;52.406;9.690;2023-06-14T06:57:01;3.13;;;1.90;;
64633;SDS011;51043;52.406;9.690;2023-06-14T06:59:30;4.80;;;2.03;;
64633;SDS011;51043;52.406;9.690;2023-06-14T07:01:58;5.18;;;1.80;;
64633;SDS011;51043;52.406;9.690;2023-06-14T07:04:28;1.98;;;1.70;;
64633;SDS011;51043;52.406;9.690;2023-06-14T07:06:57;4.70;;;1.90;;
64633;SDS011;51043;52.406;9.690;2023-06-14T07:09:26;3.85;;;1.90;;
64633;SDS011;51043;52.406;9.690;2023-06-14T07:11:54;9.63;;;1.83;;
64633;SDS011;51043;52.406;9.690;2023-06-14T07:14:28;3.15;;;1.75;;
64633;SDS011;51043;52.406;9.690;2023-06-14T07:16:56;5.07;;;1.83;;
64633;SDS011;51043;52.406;9.690;2023-06-14T07:19:24;4.43;;;1.60;;
64633;SDS011;51043;52.406;9.690;2023-06-14T07:21:55;3.55;;;1.70;;
64633;SDS011;51043;52.406;9.690;2023-06-14T07:24:24;2.95;;;1.67;;
64633;SDS011;51043;52.406;9.690;2023-06-14T07:26:54;1.80;;;1.60;;
64633;SDS011;51043;52.406;9.690;2023-06-14T07:29:25;3.92;;;1.80;;
64633;SDS011;51043;52.406;9.690;2023-06-14T07:31:54;4.43;;;1.70;;
64633;SDS011;51043;52.406;9.690;2023-06-14T07:34:24;3.88;;;1.80;;
64633;SDS011;51043;52.406;9.690;2023-06-14T07:36:54;6.47;;;1.92;;
64633;SDS011;51043;52.406;9.690;2023-06-14T07:39:25;2.20;;;1.50;;
64633;SDS011;51043;52.406;9.690;2023-06-14T07:41:53;2.70;;;1.60;;
64633;SDS011;51043;52.406;9.690;2023-06-14T07:44:22;8.88;;;1.88;;
64633;SDS011;51043;52.406;9.690;2023-06-14T07:46:51;5.55;;;1.80;;
64633;SDS011;51043;52.406;9.690;2023-06-14T07:49:19;2.33;;;1.50;;
64633;SDS011;51043;52.406;9.690;2023-06-14T07:51:47;1.60;;;1.50;;
64633;SDS011;51043;52.406;9.690;2023-06-14T07:54:18;3.20;;;1.83;;
64633;SDS011;51043;52.406;9.690;2023-06-14T07:56:51;3.33;;;2.05;;
64633;SDS011;51043;52.406;9.690;2023-06-14T07:59:20;3.28;;;1.35;;
64633;SDS011;51043;52.406;9.690;2023-06-14T08:01:48;2.65;;;1.50;;
64633;SDS011;51043;52.406;9.690;2023-06-14T08:04:18;4.20;;;1.58;;
64633;SDS011;51043;52.406;9.690;2023-06-14T08:06:46;4.50;;;1.65;;
64633;SDS011;51043;52.406;9.690;2023-06-14T08:09:15;4.78;;;1.67;;
64633;SDS011;51043;52.406;9.690;2023-06-14T08:11:44;2.05;;;1.65;;
64633;SDS011;51043;52.406;9.690;2023-06-14T08:14:14;5.40;;;1.52;;
64633;SDS011;51043;52.406;9.690;2023-06-14T08:16:42;2.72;;;1.60;;
64633;SDS011;51043;52.406;9.690;2023-06-14T08:19:10;8.05;;;1.60;;
64633;SDS011;51043;52.406;9.690;2023-06-14T08:21:39;4.45;;;1.70;;
64633;SDS011;51043;52.406;9.690;2023-06-14T08:24:07;4.63;;;1.90;;
64633;SDS011;51043;52.406;9.690;2023-06-14T08:26:36;4.25;;;1.60;;
64633;SDS011;51043;52.406;9.690;2023-06-14T08:29:06;5.60;;;1.50;;
64633;SDS011;51043;52.406;9.690;2023-06-14T08:31:37;5.95;;;1.90;;
64633;SDS011;51043;52.406;9.690;2023-06-14T08:34:05;2.15;;;1.85;;
64633;SDS011;51043;52.406;9.690;2023-06-14T08:36:37;8.80;;;1.63;;
64633;SDS011;51043;52.406;9.690;2023-06-14T08:39:08;4.60;;;1.60;;
64633;SDS011;51043;52.406;9.690;2023-06-14T08:41:36;4.50;;;1.85;;
64633;SDS011;51043;52.406;9.690;2023-06-14T08:44:06;1.70;;;1.60;;
64633;SDS011;51043;52.406;9.690;2023-06-14T08:46:35;6.63;;;1.70;;
64633;SDS011;51043;52.406;9.690;2023-06-14T08:49:04;5.75;;;2.00;;
64633;SDS011;51043;52.406;9.690;2023-06-14T08:51:35;9.38;;;1.70;;
64633;SDS011;51043;52.406;9.690;2023-06-14T08:54:04;2.78;;;1.60;;
64633;SDS011;51043;52.406;9.690;2023-06-14T08:56:33;2.67;;;1.90;;
64633;SDS011;51043;52.406;9.690;2023-06-14T08:59:02;2.42;;;1.63;;
64633;SDS011;51043;52.406;9.690;2023-06-14T09:01:36;6.22;;;1.65;;
64633;SDS011;51043;52.406;9.690;2023-06-14T09:04:05;2.25;;;1.60;;
64633;SDS011;51043;52.406;9.690;2023-06-14T09:06:33;2.63;;;1.60;;
64633;SDS011;51043;52.406;9.690;2023-06-14T09:09:05;3.70;;;1.60;;
64633;SDS011;51043;52.406;9.690;2023-06-14T09:11:34;6.35;;;2.00;;
64633;SDS011;51043;52.406;9.690;2023-06-14T09:14:02;2.03;;;1.60;;
64633;SDS011;51043;52.406;9.690;2023-06-14T09:16:32;8.88;;;1.70;;
64633;SDS011;51043;52.406;9.690;2023-06-14T09:19:03;5.88;;;1.60;;
64633;SDS011;51043;52.406;9.690;2023-06-14T09:21:33;5.32;;;1.48;;
64633;SDS011;51043;52.406;9.690;2023-06-14T09:24:04;2.92;;;1.27;;
64633;SDS011;51043;52.406;9.690;2023-06-14T09:26:32;2.72;;;1.65;;
64633;SDS011;51043;52.406;9.690;2023-06-14T09:29:05;7.25;;;1.48;;
64633;SDS011;51043;52.406;9.690;2023-06-14T09:31:34;2.45;;;1.48;;
64633;SDS011;51043;52.406;9.690;2023-06-14T09:34:04;6.80;;;1.45;;
64633;SDS011;51043;52.406;9.690;2023-06-14T09:36:33;2.40;;;1.52;;
64633;SDS011;51043;52.406;9.690;2023-06-14T09:39:02;4.97;;;1.40;;
64633;SDS011;51043;52.406;9.690;2023-06-14T09:41:32;3.78;;;1.80;;
64633;SDS011;51043;52.406;9.690;2023-06-14T09:44:04;2.30;;;1.50;;
64633;SDS011;51043;52.406;9.690;2023-06-14T09:46:35;7.10;;;1.85;;
64633;SDS011;51043;52.406;9.690;2023-06-14T09:49:05;4.70;;;1.60;;
64633;SDS011;51043;52.406;9.690;2023-06-14T09:51:34;2.50;;;1.52;;
64633;SDS011;51043;52.406;9.690;2023-06-14T09:54:09;4.28;;;1.70;;
64633;SDS011;51043;52.406;9.690;2023-06-14T09:56:44;1.88;;;1.50;;
64633;SDS011;51043;52.406;9.690;2023-06-14T09:59:12;7.95;;;1.85;;
64633;SDS011;51043;52.406;9.690;2023-06-14T10:01:42;4.65;;;1.90;;
64633;SDS011;51043;52.406;9.690;2023-06-14T10:04:12;5.63;;;1.70;;
64633;SDS011;51043;52.406;9.690;2023-06-14T10:06:43;3.75;;;1.35;;
64633;SDS011;51043;52.406;9.690;2023-06-14T10:09:13;3.80;;;1.70;;
64633;SDS011;51043;52.406;9.690;2023-06-14T10:11:41;5.88;;;1.58;;
64633;SDS011;51043;52.406;9.690;2023-06-14T10:14:11;5.25;;;1.83;;
64633;SDS011;51043;52.406;9.690;2023-06-14T10:16:42;3.47;;;1.70;;
64633;SDS011;51043;52.406;9.690;2023-06-14T10:19:18;3.53;;;1.58;;
64633;SDS011;51043;52.406;9.690;2023-06-14T10:21:54;10.00;;;1.67;;
64633;SDS011;51043;52.406;9.690;2023-06-14T10:24:29;6.50;;;1.83;;
64633;SDS011;51043;52.406;9.690;2023-06-14T10:27:02;7.05;;;2.00;;
64633;SDS011;51043;52.406;9.690;2023-06-14T10:29:41;7.60;;;2.10;;
64633;SDS011;51043;52.406;9.690;2023-06-14T10:32:31;8.68;;;2.08;;
64633;SDS011;51043;52.406;9.690;2023-06-14T10:35:05;3.83;;;1.63;;
64633;SDS011;51043;52.406;9.690;2023-06-14T10:37:36;3.83;;;1.83;;
64633;SDS011;51043;52.406;9.690;2023-06-14T10:40:04;4.57;;;1.98;;
64633;SDS011;51043;52.406;9.690;2023-06-14T10:42:35;4.50;;;2.05;;
64633;SDS011;51043;52.406;9.690;2023-06-14T10:45:03;4.63;;;2.00;;
64633;SDS011;51043;52.406;9.690;2023-06-14T10:47:32;6.78;;;2.15;;
64633;SDS011;51043;52.406;9.690;2023-06-14T10:50:06;13.40;;;2.10;;
64633;SDS011;51043;52.406;9.690;2023-06-14T10:52:38;5.85;;;1.70;;
64633;SDS011;51043;52.406;9.690;2023-06-14T10:55:11;2.75;;;1.83;;
64633;SDS011;51043;52.406;9.690;2023-06-14T10:57:42;2.58;;;2.10;;
64633;SDS011;51043;52.406;9.690;2023-06-14T11:00:16;8.85;;;2.00;;
64633;SDS011;51043;52.406;9.690;2023-06-14T11:02:52;3.88;;;2.35;;
64633;SDS011;51043;52.406;9.690;2023-06-14T11:05:49;4.72;;;2.03;;
64633;SDS011;51043;52.406;9.690;2023-06-14T11:08:40;8.60;;;2.30;;
64633;SDS011;51043;52.406;9.690;2023-06-14T11:11:24;4.80;;;1.95;;
64633;SDS011;51043;52.406;9.690;2023-06-14T11:13:59;6.55;;;1.95;;
64633;SDS011;51043;52.406;9.690;2023-06-14T11:16:30;5.07;;;2.10;;
64633;SDS011;51043;52.406;9.690;2023-06-14T11:19:00;4.28;;;2.28;;
64633;SDS011;51043;52.406;9.690;2023-06-14T11:21:31;8.05;;;1.95;;
64633;SDS011;51043;52.406;9.690;2023-06-14T11:23:59;4.30;;;2.20;;
64633;SDS011;51043;52.406;9.690;2023-06-14T11:26:30;7.10;;;2.17;;
64633;SDS011;51043;52.406;9.690;2023-06-14T11:29:01;7.03;;;2.20;;
64633;SDS011;51043;52.406;9.690;2023-06-14T11:31:32;6.45;;;2.00;;
64633;SDS011;51043;52.406;9.690;2023-06-14T11:34:00;5.75;;;2.13;;
64633;SDS011;51043;52.406;9.690;2023-06-14T11:36:33;3.97;;;1.90;;
64633;SDS011;51043;52.406;9.690;2023-06-14T11:39:03;4.05;;;2.05;;
64633;SDS011;51043;52.406;9.690;2023-06-14T11:41:34;8.85;;;2.38;;
64633;SDS011;51043;52.406;9.690;2023-06-14T11:44:05;2.80;;;1.98;;
64633;SDS011;51043;52.406;9.690;2023-06-14T11:46:34;6.60;;;2.00;;
64633;SDS011;51043;52.406;9.690;2023-06-14T11:49:03;7.80;;;2.00;;
64633;SDS011;51043;52.406;9.690;2023-06-14T11:51:34;4.50;;;2.00;;
64633;SDS011;51043;52.406;9.690;2023-06-14T11:54:03;4.10;;;1.92;;
64633;SDS011;51043;52.406;9.690;2023-06-14T11:56:33;10.02;;;2.40;;
64633;SDS011;51043;52.406;9.690;2023-06-14T11:59:02;3.92;;;2.05;;
64633;SDS011;51043;52.406;9.690;2023-06-14T12:01:32;5.13;;;1.90;;
64633;SDS011;51043;52.406;9.690;2023-06-14T12:04:03;6.00;;;2.20;;
64633;SDS011;51043;52.406;9.690;2023-06-14T12:06:31;4.03;;;2.22;;
64633;SDS011;51043;52.406;9.690;2023-06-14T12:09:06;7.32;;;2.33;;
64633;SDS011;51043;52.406;9.690;2023-06-14T12:11:39;3.47;;;2.40;;
64633;SDS011;51043;52.406;9.690;2023-06-14T12:14:10;5.35;;;2.30;;
64633;SDS011;51043;52.406;9.690;2023-06-14T12:16:38;6.53;;;1.95;;
64633;SDS011;51043;52.406;9.690;2023-06-14T12:19:12;5.50;;;2.10;;
64633;SDS011;51043;52.406;9.690;2023-06-14T12:21:45;6.68;;;2.28;;
64633;SDS011;51043;52.406;9.690;2023-06-14T12:24:16;5.65;;;1.88;;
64633;SDS011;51043;52.406;9.690;2023-06-14T12:26:44;5.95;;;2.25;;
64633;SDS011;51043;52.406;9.690;2023-06-14T12:29:13;7.38;;;2.05;;
64633;SDS011;51043;52.406;9.690;2023-06-14T12:31:41;8.20;;;2.20;;
64633;SDS011;51043;52.406;9.690;2023-06-14T12:34:09;7.63;;;2.47;;
64633;SDS011;51043;52.406;9.690;2023-06-14T12:36:37;5.63;;;2.22;;
64633;SDS011;51043;52.406;9.690;2023-06-14T12:39:10;5.03;;;2.05;;
64633;SDS011;51043;52.406;9.690;2023-06-14T12:41:39;7.30;;;2.67;;
64633;SDS011;51043;52.406;9.690;2023-06-14T12:44:09;7.82;;;2.80;;
64633;SDS011;51043;52.406;9.690;2023-06-14T12:46:37;4.05;;;2.50;;
64633;SDS011;51043;52.406;9.690;2023-06-14T12:49:08;11.85;;;3.15;;
64633;SDS011;51043;52.406;9.690;2023-06-14T12:51:37;6.00;;;2.30;;
64633;SDS011;51043;52.406;9.690;2023-06-14T12:54:06;10.40;;;2.45;;
64633;SDS011;51043;52.406;9.690;2023-06-14T12:56:34;4.75;;;2.42;;
64633;SDS011;51043;52.406;9.690;2023-06-14T12:59:04;7.85;;;2.70;;
64633;SDS011;51043;52.406;9.690;2023-06-14T13:01:33;4.38;;;2.30;;
64633;SDS011;51043;52.406;9.690;2023-06-14T13:04:03;6.40;;;2.40;;
64633;SDS011;51043;52.406;9.690;2023-06-14T13:06:31;3.50;;;2.30;;
64633;SDS011;51043;52.406;9.690;2023-06-14T13:09:01;5.07;;;2.20;;
64633;SDS011;51043;52.406;9.690;2023-06-14T13:11:31;7.43;;;2.50;;
64633;SDS011;51043;52.406;9.690;2023-06-14T13:13:59;6.47;;;2.50;;
64633;SDS011;51043;52.406;9.690;2023-06-14T13:16:35;7.10;;;2.40;;
64633;SDS011;51043;52.406;9.690;2023-06-14T13:19:03;7.05;;;2.10;;
64633;SDS011;51043;52.406;9.690;2023-06-14T13:21:32;5.63;;;2.20;;
64633;SDS011;51043;52.406;9.690;2023-06-14T13:24:00;5.45;;;2.30;;
64633;SDS011;51043;52.406;9.690;2023-06-14T13:26:32;6.75;;;2.35;;
64633;SDS011;51043;52.406;9.690;2023-06-14T13:29:01;9.68;;;2.20;;
64633;SDS011;51043;52.406;9.690;2023-06-14T13:31:32;8.18;;;2.28;;
64633;SDS011;51043;52.406;9.690;2023-06-14T13:34:02;11.45;;;2.35;;
64633;SDS011;51043;52.406;9.690;2023-06-14T13:36:32;9.95;;;2.80;;
64633;SDS011;51043;52.406;9.690;2023-06-14T13:39:00;15.77;;;2.40;;
64633;SDS011;51043;52.406;9.690;2023-06-14T13:41:31;10.13;;;2.40;;
64633;SDS011;51043;52.406;9.690;2023-06-14T13:44:01;6.78;;;2.53;;
64633;SDS011;51043;52.406;9.690;2023-06-14T13:46:31;5.93;;;2.30;;
64633;SDS011;51043;52.406;9.690;2023-06-14T13:48:59;5.22;;;2.30;;
64633;SDS011;51043;52.406;9.690;2023-06-14T13:51:31;7.65;;;2.50;;
64633;SDS011;51043;52.406;9.690;2023-06-14T13:54:01;5.32;;;2.50;;
64633;SDS011;51043;52.406;9.690;2023-06-14T13:56:32;20.65;;;2.75;;
64633;SDS011;51043;52.406;9.690;2023-06-14T13:59:00;11.60;;;3.17;;
64633;SDS011;51043;52.406;9.690;2023-06-14T14:01:31;12.23;;;2.88;;
64633;SDS011;51043;52.406;9.690;2023-06-14T14:03:59;5.15;;;2.50;;
64633;SDS011;51043;52.406;9.690;2023-06-14T14:06:31;8.07;;;2.67;;
64633;SDS011;51043;52.406;9.690;2023-06-14T14:08:59;6.68;;;2.25;;
64633;SDS011;51043;52.406;9.690;2023-06-14T14:11:35;9.07;;;2.53;;
64633;SDS011;51043;52.406;9.690;2023-06-14T14:14:06;7.78;;;2.38;;
64633;SDS011;51043;52.406;9.690;2023-06-14T14:16:35;7.07;;;2.35;;
64633;SDS011;51043;52.406;9.690;2023-06-14T14:19:05;9.02;;;2.60;;
64633;SDS011;51043;52.406;9.690;2023-06-14T14:21:34;7.50;;;2.35;;
64633;SDS011;51043;52.406;9.690;2023-06-14T14:24:06;6.35;;;2.38;;
64633;SDS011;51043;52.406;9.690;2023-06-14T14:26:37;4.22;;;2.60;;
64633;SDS011;51043;52.406;9.690;2023-06-14T14:29:08;4.22;;;2.10;;
64633;SDS011;51043;52.406;9.690;2023-06-14T14:31:37;5.63;;;2.35;;
64633;SDS011;51043;52.406;9.690;2023-06-14T14:34:08;5.80;;;2.35;;
64633;SDS011;51043;52.406;9.690;2023-06-14T14:36:38;5.90;;;2.45;;
64633;SDS011;51043;52.406;9.690;2023-06-14T14:39:08;5.45;;;2.40;;
64633;SDS011;51043;52.406;9.690;2023-06-14T14:41:37;4.20;;;2.42;;
64633;SDS011;51043;52.406;9.690;2023-06-14T14:44:07;8.13;;;2.53;;
64633;SDS011;51043;52.406;9.690;2023-06-14T14:46:35;4.63;;;2.35;;
64633;SDS011;51043;52.406;9.690;2023-06-14T14:49:05;7.53;;;2.25;;
64633;SDS011;51043;52.406;9.690;2023-06-14T14:51:33;7.25;;;2.38;;
64633;SDS011;51043;52.406;9.690;2023-06-14T14:54:05;6.00;;;2.22;;
64633;SDS011;51043;52.406;9.690;2023-06-14T14:56:33;4.65;;;2.05;;
64633;SDS011;51043;52.406;9.690;2023-06-14T14:59:04;7.03;;;2.50;;
64633;SDS011;51043;52.406;9.690;2023-06-14T15:01:32;7.32;;;2.38;;
64633;SDS011;51043;52.406;9.690;2023-06-14T15:04:02;6.30;;;2.38;;
64633;SDS011;51043;52.406;9.690;2023-06-14T15:06:32;10.27;;;2.70;;
64633;SDS011;51043;52.406;9.690;2023-06-14T15:09:05;5.65;;;2.63;;